sensor_id;sensor_type;location;lat;lon;timestamp;temperature;humidity
35613;DHT22;22054;51.646;7.078;2022-12-18T00:01:05;-6.70;57.90
35613;DHT22;22054;51.646;7.078;2022-12-18T00:03:38;-6.70;58.30
35613;DHT22;22054;51.646;7.078;2022-12-18T00:06:04;-6.80;55.00
35613;DHT22;22054;51.646;7.078;2022-12-18T00:08:30;-6.80;57.70
35613;DHT22;22054;51.646;7.078;2022-12-18T00:10:55;-6.80;56.90
35613;DHT22;22054;51.646;7.078;2022-12-18T00:13:28;-6.80;60.90
35613;DHT22;22054;51.646;7.078;2022-12-18T00:15:54;-6.80;63.70
35613;DHT22;22054;51.646;7.078;2022-12-18T00:18:20;-6.80;64.60
35613;DHT22;22054;51.646;7.078;2022-12-18T00:20:48;-6.90;56.90
35613;DHT22;22054;51.646;7.078;2022-12-18T00:23:13;-6.90;54.30
35613;DHT22;22054;51.646;7.078;2022-12-18T00:25:39;-6.90;54.30
35613;DHT22;22054;51.646;7.078;2022-12-18T00:28:05;-6.90;56.90
35613;DHT22;22054;51.646;7.078;2022-12-18T00:30:31;-6.90;59.50
35613;DHT22;22054;51.646;7.078;2022-12-18T00:32:57;-6.90;59.50
35613;DHT22;22054;51.646;7.078;2022-12-18T00:35:22;-6.90;71.60
35613;DHT22;22054;51.646;7.078;2022-12-18T00:37:48;-6.90;80.80
35613;DHT22;22054;51.646;7.078;2022-12-18T00:40:14;-6.90;92.70
35613;DHT22;22054;51.646;7.078;2022-12-18T00:42:40;-6.90;94.30
35613;DHT22;22054;51.646;7.078;2022-12-18T00:45:25;-6.90;87.60
35613;DHT22;22054;51.646;7.078;2022-12-18T00:47:56;-6.90;73.80
35613;DHT22;22054;51.646;7.078;2022-12-18T00:50:23;-6.90;73.30
35613;DHT22;22054;51.646;7.078;2022-12-18T00:52:50;-7.00;74.30
35613;DHT22;22054;51.646;7.078;2022-12-18T00:55:16;-6.90;77.30
35613;DHT22;22054;51.646;7.078;2022-12-18T00:57:42;-7.00;76.60
35613;DHT22;22054;51.646;7.078;2022-12-18T01:00:11;-6.90;81.60
35613;DHT22;22054;51.646;7.078;2022-12-18T01:02:38;-6.90;77.70
35613;DHT22;22054;51.646;7.078;2022-12-18T01:05:05;-6.90;71.80
35613;DHT22;22054;51.646;7.078;2022-12-18T01:07:31;-7.00;67.30
35613;DHT22;22054;51.646;7.078;2022-12-18T01:09:56;-6.90;77.90
35613;DHT22;22054;51.646;7.078;2022-12-18T01:12:22;-6.90;89.00
35613;DHT22;22054;51.646;7.078;2022-12-18T01:14:48;-6.90;93.20
35613;DHT22;22054;51.646;7.078;2022-12-18T01:17:13;-6.70;95.50
35613;DHT22;22054;51.646;7.078;2022-12-18T01:19:39;-6.90;95.20
35613;DHT22;22054;51.646;7.078;2022-12-18T01:22:05;-6.90;96.90
35613;DHT22;22054;51.646;7.078;2022-12-18T01:24:33;-6.90;95.30
35613;DHT22;22054;51.646;7.078;2022-12-18T01:26:59;-6.90;94.40
35613;DHT22;22054;51.646;7.078;2022-12-18T01:29:24;-6.90;94.80
35613;DHT22;22054;51.646;7.078;2022-12-18T01:31:50;-6.90;93.00
35613;DHT22;22054;51.646;7.078;2022-12-18T01:34:16;-6.90;86.90
35613;DHT22;22054;51.646;7.078;2022-12-18T01:36:42;-6.70;78.40
35613;DHT22;22054;51.646;7.078;2022-12-18T01:39:13;-7.00;71.20
35613;DHT22;22054;51.646;7.078;2022-12-18T01:41:39;-7.00;65.30
35613;DHT22;22054;51.646;7.078;2022-12-18T01:44:59;-7.00;63.30
35613;DHT22;22054;51.646;7.078;2022-12-18T01:50:27;-7.10;58.50
35613;DHT22;22054;51.646;7.078;2022-12-18T01:53:22;-7.10;62.30
35613;DHT22;22054;51.646;7.078;2022-12-18T01:55:51;-7.00;66.80
35613;DHT22;22054;51.646;7.078;2022-12-18T01:58:19;-7.10;71.20
35613;DHT22;22054;51.646;7.078;2022-12-18T02:00:46;-7.10;69.20
35613;DHT22;22054;51.646;7.078;2022-12-18T02:03:11;-7.10;67.60
35613;DHT22;22054;51.646;7.078;2022-12-18T02:12:11;-7.10;63.00
35613;DHT22;22054;51.646;7.078;2022-12-18T02:14:55;-7.10;61.40
35613;DHT22;22054;51.646;7.078;2022-12-18T02:20:16;-7.10;73.60
35613;DHT22;22054;51.646;7.078;2022-12-18T02:23:04;-7.10;76.90
35613;DHT22;22054;51.646;7.078;2022-12-18T02:25:42;-7.20;75.50
35613;DHT22;22054;51.646;7.078;2022-12-18T02:28:30;-7.20;77.00
35613;DHT22;22054;51.646;7.078;2022-12-18T02:31:01;-7.20;80.50
35613;DHT22;22054;51.646;7.078;2022-12-18T02:33:29;-7.10;85.90
35613;DHT22;22054;51.646;7.078;2022-12-18T02:35:57;-7.10;81.90
35613;DHT22;22054;51.646;7.078;2022-12-18T02:38:25;-7.10;76.10
35613;DHT22;22054;51.646;7.078;2022-12-18T02:40:51;-7.00;67.30
35613;DHT22;22054;51.646;7.078;2022-12-18T02:43:19;-7.20;63.20
35613;DHT22;22054;51.646;7.078;2022-12-18T02:45:49;-7.20;54.40
35613;DHT22;22054;51.646;7.078;2022-12-18T02:48:26;-7.20;48.00
35613;DHT22;22054;51.646;7.078;2022-12-18T02:51:02;-7.20;50.60
35613;DHT22;22054;51.646;7.078;2022-12-18T02:53:44;-7.20;48.80
35613;DHT22;22054;51.646;7.078;2022-12-18T02:56:20;-7.20;52.40
35613;DHT22;22054;51.646;7.078;2022-12-18T02:59:12;-7.20;59.60
35613;DHT22;22054;51.646;7.078;2022-12-18T03:01:52;-7.20;74.50
35613;DHT22;22054;51.646;7.078;2022-12-18T03:04:43;-7.10;81.50
35613;DHT22;22054;51.646;7.078;2022-12-18T03:07:15;-7.20;93.20
35613;DHT22;22054;51.646;7.078;2022-12-18T03:09:48;-7.20;98.00
35613;DHT22;22054;51.646;7.078;2022-12-18T03:15:00;-6.90;99.90
35613;DHT22;22054;51.646;7.078;2022-12-18T03:17:35;-7.10;99.90
35613;DHT22;22054;51.646;7.078;2022-12-18T03:20:13;-7.10;99.10
35613;DHT22;22054;51.646;7.078;2022-12-18T03:22:43;-6.90;97.20
35613;DHT22;22054;51.646;7.078;2022-12-18T03:25:13;-7.20;94.00
35613;DHT22;22054;51.646;7.078;2022-12-18T03:27:44;-7.10;95.30
35613;DHT22;22054;51.646;7.078;2022-12-18T03:30:14;-7.10;95.70
35613;DHT22;22054;51.646;7.078;2022-12-18T03:35:14;-7.10;95.50
35613;DHT22;22054;51.646;7.078;2022-12-18T03:37:44;-7.10;96.40
35613;DHT22;22054;51.646;7.078;2022-12-18T03:40:10;-7.10;99.00
35613;DHT22;22054;51.646;7.078;2022-12-18T03:42:49;-7.00;99.90
35613;DHT22;22054;51.646;7.078;2022-12-18T03:45:32;-6.90;99.90
35613;DHT22;22054;51.646;7.078;2022-12-18T03:48:22;-7.10;98.60
35613;DHT22;22054;51.646;7.078;2022-12-18T03:51:06;-7.10;97.60
35613;DHT22;22054;51.646;7.078;2022-12-18T03:53:47;-7.10;96.30
35613;DHT22;22054;51.646;7.078;2022-12-18T03:56:17;-7.10;94.80
35613;DHT22;22054;51.646;7.078;2022-12-18T03:58:44;-7.20;87.20
35613;DHT22;22054;51.646;7.078;2022-12-18T04:01:13;-7.00;73.50
35613;DHT22;22054;51.646;7.078;2022-12-18T04:03:41;-7.20;69.70
35613;DHT22;22054;51.646;7.078;2022-12-18T04:06:08;-7.30;66.30
35613;DHT22;22054;51.646;7.078;2022-12-18T04:08:34;-7.20;65.60
35613;DHT22;22054;51.646;7.078;2022-12-18T04:11:01;-7.30;62.80
35613;DHT22;22054;51.646;7.078;2022-12-18T04:13:36;-7.30;61.70
35613;DHT22;22054;51.646;7.078;2022-12-18T04:16:03;-7.30;59.80
35613;DHT22;22054;51.646;7.078;2022-12-18T04:18:29;-7.30;58.30
35613;DHT22;22054;51.646;7.078;2022-12-18T04:20:55;-7.30;59.80
35613;DHT22;22054;51.646;7.078;2022-12-18T04:23:21;-7.30;59.00
35613;DHT22;22054;51.646;7.078;2022-12-18T04:25:47;-7.40;59.20
35613;DHT22;22054;51.646;7.078;2022-12-18T04:28:13;-7.30;61.20
35613;DHT22;22054;51.646;7.078;2022-12-18T04:30:39;-7.30;57.70
35613;DHT22;22054;51.646;7.078;2022-12-18T04:33:12;-7.40;56.00
35613;DHT22;22054;51.646;7.078;2022-12-18T04:35:39;-7.40;55.00
35613;DHT22;22054;51.646;7.078;2022-12-18T04:38:06;-7.30;56.60
35613;DHT22;22054;51.646;7.078;2022-12-18T04:40:34;-7.40;57.40
35613;DHT22;22054;51.646;7.078;2022-12-18T04:43:00;-7.40;54.90
35613;DHT22;22054;51.646;7.078;2022-12-18T04:45:25;-7.40;53.60
35613;DHT22;22054;51.646;7.078;2022-12-18T04:47:51;-7.40;56.20
35613;DHT22;22054;51.646;7.078;2022-12-18T04:50:17;-7.30;60.80
35613;DHT22;22054;51.646;7.078;2022-12-18T04:52:42;-7.30;69.70
35613;DHT22;22054;51.646;7.078;2022-12-18T04:55:08;-7.30;73.70
35613;DHT22;22054;51.646;7.078;2022-12-18T04:57:34;-7.30;75.70
35613;DHT22;22054;51.646;7.078;2022-12-18T05:00:00;-7.30;82.20
35613;DHT22;22054;51.646;7.078;2022-12-18T05:02:28;-7.30;86.70
35613;DHT22;22054;51.646;7.078;2022-12-18T05:04:54;-7.30;90.60
35613;DHT22;22054;51.646;7.078;2022-12-18T05:07:20;-7.20;96.50
35613;DHT22;22054;51.646;7.078;2022-12-18T05:09:45;-7.20;98.50
35613;DHT22;22054;51.646;7.078;2022-12-18T05:12:11;-7.20;99.90
35613;DHT22;22054;51.646;7.078;2022-12-18T05:14:37;-7.10;99.90
35613;DHT22;22054;51.646;7.078;2022-12-18T05:17:02;-7.20;99.90
35613;DHT22;22054;51.646;7.078;2022-12-18T05:19:28;-7.20;99.90
35613;DHT22;22054;51.646;7.078;2022-12-18T05:21:54;-7.20;99.90
35613;DHT22;22054;51.646;7.078;2022-12-18T05:24:19;-7.20;99.90
35613;DHT22;22054;51.646;7.078;2022-12-18T05:26:49;-7.20;99.90
35613;DHT22;22054;51.646;7.078;2022-12-18T05:29:14;-7.20;99.90
35613;DHT22;22054;51.646;7.078;2022-12-18T05:31:40;-7.20;99.90
35613;DHT22;22054;51.646;7.078;2022-12-18T05:34:06;-7.20;99.90
35613;DHT22;22054;51.646;7.078;2022-12-18T05:36:32;-7.20;99.90
35613;DHT22;22054;51.646;7.078;2022-12-18T05:38:57;-7.20;99.90
35613;DHT22;22054;51.646;7.078;2022-12-18T05:41:23;-7.20;99.90
35613;DHT22;22054;51.646;7.078;2022-12-18T05:43:49;-7.30;99.30
35613;DHT22;22054;51.646;7.078;2022-12-18T05:46:17;-7.30;96.50
35613;DHT22;22054;51.646;7.078;2022-12-18T05:48:46;-7.30;96.80
35613;DHT22;22054;51.646;7.078;2022-12-18T05:51:17;-7.30;94.60
35613;DHT22;22054;51.646;7.078;2022-12-18T05:53:45;-7.40;91.90
35613;DHT22;22054;51.646;7.078;2022-12-18T05:56:13;-7.40;86.60
35613;DHT22;22054;51.646;7.078;2022-12-18T05:58:40;-7.40;78.70
35613;DHT22;22054;51.646;7.078;2022-12-18T06:01:18;-7.40;71.70
35613;DHT22;22054;51.646;7.078;2022-12-18T06:03:46;-7.40;66.10
35613;DHT22;22054;51.646;7.078;2022-12-18T06:06:37;-7.40;61.50
35613;DHT22;22054;51.646;7.078;2022-12-18T06:09:03;-7.40;61.80
35613;DHT22;22054;51.646;7.078;2022-12-18T06:11:35;-7.40;60.80
35613;DHT22;22054;51.646;7.078;2022-12-18T06:14:03;-7.50;59.30
35613;DHT22;22054;51.646;7.078;2022-12-18T06:16:30;-7.50;55.60
35613;DHT22;22054;51.646;7.078;2022-12-18T06:18:57;-7.50;55.90
35613;DHT22;22054;51.646;7.078;2022-12-18T06:21:23;-7.50;58.20
35613;DHT22;22054;51.646;7.078;2022-12-18T06:23:49;-7.50;61.80
35613;DHT22;22054;51.646;7.078;2022-12-18T06:26:15;-7.50;62.90
35613;DHT22;22054;51.646;7.078;2022-12-18T06:28:41;-7.50;60.30
35613;DHT22;22054;51.646;7.078;2022-12-18T06:31:07;-7.50;61.70
35613;DHT22;22054;51.646;7.078;2022-12-18T06:33:33;-7.50;65.10
35613;DHT22;22054;51.646;7.078;2022-12-18T06:36:01;-7.50;63.20
35613;DHT22;22054;51.646;7.078;2022-12-18T06:38:28;-7.50;61.80
35613;DHT22;22054;51.646;7.078;2022-12-18T06:40:54;-7.50;60.60
35613;DHT22;22054;51.646;7.078;2022-12-18T06:43:23;-7.50;56.70
35613;DHT22;22054;51.646;7.078;2022-12-18T06:45:49;-7.50;55.30
35613;DHT22;22054;51.646;7.078;2022-12-18T06:48:18;-7.50;54.20
35613;DHT22;22054;51.646;7.078;2022-12-18T06:50:47;-7.50;53.60
35613;DHT22;22054;51.646;7.078;2022-12-18T06:53:13;-7.50;50.20
35613;DHT22;22054;51.646;7.078;2022-12-18T06:55:38;-7.50;45.50
35613;DHT22;22054;51.646;7.078;2022-12-18T06:58:04;-7.60;41.40
35613;DHT22;22054;51.646;7.078;2022-12-18T07:00:30;-7.60;42.50
35613;DHT22;22054;51.646;7.078;2022-12-18T07:02:56;-7.60;49.70
35613;DHT22;22054;51.646;7.078;2022-12-18T07:05:21;-7.60;51.60
35613;DHT22;22054;51.646;7.078;2022-12-18T07:07:47;-7.60;51.90
35613;DHT22;22054;51.646;7.078;2022-12-18T07:10:13;-7.60;51.20
35613;DHT22;22054;51.646;7.078;2022-12-18T07:12:38;-7.60;51.10
35613;DHT22;22054;51.646;7.078;2022-12-18T07:15:05;-7.60;51.90
35613;DHT22;22054;51.646;7.078;2022-12-18T07:17:31;-7.60;53.00
35613;DHT22;22054;51.646;7.078;2022-12-18T07:19:56;-7.50;54.70
35613;DHT22;22054;51.646;7.078;2022-12-18T07:22:22;-7.50;57.10
35613;DHT22;22054;51.646;7.078;2022-12-18T07:24:48;-7.40;73.10
35613;DHT22;22054;51.646;7.078;2022-12-18T07:27:15;-7.40;92.70
35613;DHT22;22054;51.646;7.078;2022-12-18T07:29:40;-7.30;99.30
35613;DHT22;22054;51.646;7.078;2022-12-18T07:32:06;-7.20;99.90
35613;DHT22;22054;51.646;7.078;2022-12-18T07:34:32;-7.20;99.90
35613;DHT22;22054;51.646;7.078;2022-12-18T07:36:58;-7.20;99.90
35613;DHT22;22054;51.646;7.078;2022-12-18T07:39:24;-7.00;99.90
35613;DHT22;22054;51.646;7.078;2022-12-18T07:41:50;-6.90;99.90
35613;DHT22;22054;51.646;7.078;2022-12-18T07:44:34;-6.80;99.90
35613;DHT22;22054;51.646;7.078;2022-12-18T07:47:00;-6.70;99.90
35613;DHT22;22054;51.646;7.078;2022-12-18T07:49:25;-6.60;99.90
35613;DHT22;22054;51.646;7.078;2022-12-18T07:51:54;-6.50;99.90
35613;DHT22;22054;51.646;7.078;2022-12-18T07:54:24;-6.50;99.90
35613;DHT22;22054;51.646;7.078;2022-12-18T07:56:51;-6.30;99.90
35613;DHT22;22054;51.646;7.078;2022-12-18T07:59:17;-6.10;99.90
35613;DHT22;22054;51.646;7.078;2022-12-18T08:01:43;-6.00;99.90
35613;DHT22;22054;51.646;7.078;2022-12-18T08:04:09;-5.90;99.90
35613;DHT22;22054;51.646;7.078;2022-12-18T08:06:35;-5.80;99.90
35613;DHT22;22054;51.646;7.078;2022-12-18T08:09:01;-5.60;99.90
35613;DHT22;22054;51.646;7.078;2022-12-18T08:11:28;-5.40;99.90
35613;DHT22;22054;51.646;7.078;2022-12-18T08:13:54;-5.60;99.90
35613;DHT22;22054;51.646;7.078;2022-12-18T08:16:20;-5.40;99.90
35613;DHT22;22054;51.646;7.078;2022-12-18T08:18:47;-5.40;99.90
35613;DHT22;22054;51.646;7.078;2022-12-18T08:21:15;-5.40;99.90
35613;DHT22;22054;51.646;7.078;2022-12-18T08:23:43;-5.30;99.90
35613;DHT22;22054;51.646;7.078;2022-12-18T08:26:11;-5.30;99.90
35613;DHT22;22054;51.646;7.078;2022-12-18T08:28:37;-5.20;99.90
35613;DHT22;22054;51.646;7.078;2022-12-18T08:31:03;-5.00;99.90
35613;DHT22;22054;51.646;7.078;2022-12-18T08:33:29;-5.00;99.90
35613;DHT22;22054;51.646;7.078;2022-12-18T08:35:55;-4.90;99.90
35613;DHT22;22054;51.646;7.078;2022-12-18T08:38:20;-4.70;99.90
35613;DHT22;22054;51.646;7.078;2022-12-18T08:40:46;-4.70;99.90
35613;DHT22;22054;51.646;7.078;2022-12-18T08:43:12;-4.60;94.80
35613;DHT22;22054;51.646;7.078;2022-12-18T08:45:56;-4.50;82.50
35613;DHT22;22054;51.646;7.078;2022-12-18T08:48:22;-4.40;58.00
35613;DHT22;22054;51.646;7.078;2022-12-18T08:50:55;-4.10;49.70
35613;DHT22;22054;51.646;7.078;2022-12-18T08:53:24;-4.20;32.00
35613;DHT22;22054;51.646;7.078;2022-12-18T08:55:51;-4.10;19.50
35613;DHT22;22054;51.646;7.078;2022-12-18T08:58:17;-4.00;14.00
35613;DHT22;22054;51.646;7.078;2022-12-18T09:00:43;-4.00;17.80
35613;DHT22;22054;51.646;7.078;2022-12-18T09:03:18;-3.90;37.90
35613;DHT22;22054;51.646;7.078;2022-12-18T09:05:45;-3.70;41.70
35613;DHT22;22054;51.646;7.078;2022-12-18T09:08:12;-3.60;23.50
35613;DHT22;22054;51.646;7.078;2022-12-18T09:10:45;-3.50;8.00
35613;DHT22;22054;51.646;7.078;2022-12-18T09:13:12;-3.30;8.50
35613;DHT22;22054;51.646;7.078;2022-12-18T09:15:45;-3.20;18.80
35613;DHT22;22054;51.646;7.078;2022-12-18T09:18:14;-3.00;9.10
35613;DHT22;22054;51.646;7.078;2022-12-18T09:20:40;-2.90;1.00
35613;DHT22;22054;51.646;7.078;2022-12-18T09:23:06;-2.80;1.00
35613;DHT22;22054;51.646;7.078;2022-12-18T09:25:33;-2.60;1.00
35613;DHT22;22054;51.646;7.078;2022-12-18T09:28:13;-2.60;1.00
35613;DHT22;22054;51.646;7.078;2022-12-18T09:30:43;-2.50;1.00
35613;DHT22;22054;51.646;7.078;2022-12-18T09:33:10;-2.50;1.00
35613;DHT22;22054;51.646;7.078;2022-12-18T09:35:37;-2.40;1.00
35613;DHT22;22054;51.646;7.078;2022-12-18T09:38:04;-2.10;45.00
35613;DHT22;22054;51.646;7.078;2022-12-18T09:40:40;-1.60;99.90
35613;DHT22;22054;51.646;7.078;2022-12-18T09:43:47;-1.10;99.90
35613;DHT22;22054;51.646;7.078;2022-12-18T09:46:28;-0.70;99.90
35613;DHT22;22054;51.646;7.078;2022-12-18T09:49:00;-0.40;99.90
35613;DHT22;22054;51.646;7.078;2022-12-18T09:51:37;-0.20;24.60
35613;DHT22;22054;51.646;7.078;2022-12-18T09:54:10;-0.10;1.00
35613;DHT22;22054;51.646;7.078;2022-12-18T09:56:41;0.00;1.60
35613;DHT22;22054;51.646;7.078;2022-12-18T09:59:37;0.20;44.30
35613;DHT22;22054;51.646;7.078;2022-12-18T10:02:17;0.40;1.00
35613;DHT22;22054;51.646;7.078;2022-12-18T10:05:02;0.60;1.00
35613;DHT22;22054;51.646;7.078;2022-12-18T10:07:59;0.60;99.90
35613;DHT22;22054;51.646;7.078;2022-12-18T10:10:53;0.70;1.00
35613;DHT22;22054;51.646;7.078;2022-12-18T10:25:15;1.00;1.00
35613;DHT22;22054;51.646;7.078;2022-12-18T10:27:42;1.10;99.90
35613;DHT22;22054;51.646;7.078;2022-12-18T10:30:14;1.10;1.00
35613;DHT22;22054;51.646;7.078;2022-12-18T10:32:41;1.00;1.00
35613;DHT22;22054;51.646;7.078;2022-12-18T10:35:15;0.80;1.00
35613;DHT22;22054;51.646;7.078;2022-12-18T10:40:29;0.80;99.90
35613;DHT22;22054;51.646;7.078;2022-12-18T10:43:12;0.80;1.00
35613;DHT22;22054;51.646;7.078;2022-12-18T10:45:40;0.80;99.90
35613;DHT22;22054;51.646;7.078;2022-12-18T10:48:22;1.00;1.00
35613;DHT22;22054;51.646;7.078;2022-12-18T10:50:50;0.90;99.90
35613;DHT22;22054;51.646;7.078;2022-12-18T10:53:28;1.10;99.90
35613;DHT22;22054;51.646;7.078;2022-12-18T10:56:00;1.20;1.00
35613;DHT22;22054;51.646;7.078;2022-12-18T10:58:35;1.30;99.90
35613;DHT22;22054;51.646;7.078;2022-12-18T11:01:16;1.40;99.90
35613;DHT22;22054;51.646;7.078;2022-12-18T11:03:58;1.50;1.00
35613;DHT22;22054;51.646;7.078;2022-12-18T11:06:25;1.50;1.00
35613;DHT22;22054;51.646;7.078;2022-12-18T11:09:03;1.50;1.00
35613;DHT22;22054;51.646;7.078;2022-12-18T11:11:32;1.50;1.00
35613;DHT22;22054;51.646;7.078;2022-12-18T11:14:04;1.60;1.00
35613;DHT22;22054;51.646;7.078;2022-12-18T11:16:42;1.60;1.00
35613;DHT22;22054;51.646;7.078;2022-12-18T11:19:19;1.70;1.00
35613;DHT22;22054;51.646;7.078;2022-12-18T11:21:49;1.70;1.00
35613;DHT22;22054;51.646;7.078;2022-12-18T11:24:38;1.70;1.00
35613;DHT22;22054;51.646;7.078;2022-12-18T11:27:16;1.80;1.00
35613;DHT22;22054;51.646;7.078;2022-12-18T11:29:43;1.80;1.00
35613;DHT22;22054;51.646;7.078;2022-12-18T11:32:24;1.80;1.00
35613;DHT22;22054;51.646;7.078;2022-12-18T11:37:59;1.70;1.00
35613;DHT22;22054;51.646;7.078;2022-12-18T11:40:36;1.60;1.00
35613;DHT22;22054;51.646;7.078;2022-12-18T11:43:16;1.60;1.00
35613;DHT22;22054;51.646;7.078;2022-12-18T11:45:53;1.60;1.00
35613;DHT22;22054;51.646;7.078;2022-12-18T11:48:49;1.50;1.00
35613;DHT22;22054;51.646;7.078;2022-12-18T11:51:34;1.50;1.00
35613;DHT22;22054;51.646;7.078;2022-12-18T11:54:14;1.40;1.00
35613;DHT22;22054;51.646;7.078;2022-12-18T11:59:53;1.50;1.00
35613;DHT22;22054;51.646;7.078;2022-12-18T12:14:31;1.60;1.00
35613;DHT22;22054;51.646;7.078;2022-12-18T12:17:26;1.60;1.00
35613;DHT22;22054;51.646;7.078;2022-12-18T12:20:20;1.60;1.00
35613;DHT22;22054;51.646;7.078;2022-12-18T12:29:26;1.50;1.00
35613;DHT22;22054;51.646;7.078;2022-12-18T12:32:22;1.50;1.00
35613;DHT22;22054;51.646;7.078;2022-12-18T12:35:03;1.50;1.00
35613;DHT22;22054;51.646;7.078;2022-12-18T12:41:05;1.50;1.00
35613;DHT22;22054;51.646;7.078;2022-12-18T12:43:52;1.50;1.00
35613;DHT22;22054;51.646;7.078;2022-12-18T12:46:22;1.70;1.00
35613;DHT22;22054;51.646;7.078;2022-12-18T12:51:21;1.40;1.00
35613;DHT22;22054;51.646;7.078;2022-12-18T12:53:49;1.40;68.70
35613;DHT22;22054;51.646;7.078;2022-12-18T12:56:18;1.40;11.90
35613;DHT22;22054;51.646;7.078;2022-12-18T12:59:10;1.50;22.90
35613;DHT22;22054;51.646;7.078;2022-12-18T13:02:08;1.50;54.30
35613;DHT22;22054;51.646;7.078;2022-12-18T13:07:37;1.50;99.90
35613;DHT22;22054;51.646;7.078;2022-12-18T13:13:07;1.40;99.90
35613;DHT22;22054;51.646;7.078;2022-12-18T13:16:05;1.30;1.00
35613;DHT22;22054;51.646;7.078;2022-12-18T13:18:32;1.30;1.00
35613;DHT22;22054;51.646;7.078;2022-12-18T13:25:51;1.30;1.00
35613;DHT22;22054;51.646;7.078;2022-12-18T13:30:59;1.40;1.00
35613;DHT22;22054;51.646;7.078;2022-12-18T13:36:16;1.20;1.00
35613;DHT22;22054;51.646;7.078;2022-12-18T13:41:36;1.20;1.00
35613;DHT22;22054;51.646;7.078;2022-12-18T13:47:34;1.10;99.90
35613;DHT22;22054;51.646;7.078;2022-12-18T13:50:30;1.10;99.90
35613;DHT22;22054;51.646;7.078;2022-12-18T13:52:55;1.00;1.00
35613;DHT22;22054;51.646;7.078;2022-12-18T13:55:22;1.00;1.00
35613;DHT22;22054;51.646;7.078;2022-12-18T13:57:48;1.00;1.00
35613;DHT22;22054;51.646;7.078;2022-12-18T14:00:25;1.00;1.00
35613;DHT22;22054;51.646;7.078;2022-12-18T14:02:54;1.00;99.90
35613;DHT22;22054;51.646;7.078;2022-12-18T14:05:26;1.00;99.90
35613;DHT22;22054;51.646;7.078;2022-12-18T14:07:54;0.90;99.90
35613;DHT22;22054;51.646;7.078;2022-12-18T14:10:20;1.00;99.90
35613;DHT22;22054;51.646;7.078;2022-12-18T14:12:50;1.00;92.70
35613;DHT22;22054;51.646;7.078;2022-12-18T14:17:57;0.90;1.00
35613;DHT22;22054;51.646;7.078;2022-12-18T14:20:26;0.90;1.00
35613;DHT22;22054;51.646;7.078;2022-12-18T14:22:53;0.90;1.00
35613;DHT22;22054;51.646;7.078;2022-12-18T14:25:30;0.90;1.00
35613;DHT22;22054;51.646;7.078;2022-12-18T14:28:02;0.80;60.60
35613;DHT22;22054;51.646;7.078;2022-12-18T14:30:43;0.70;99.90
35613;DHT22;22054;51.646;7.078;2022-12-18T14:33:20;0.90;99.90
35613;DHT22;22054;51.646;7.078;2022-12-18T14:35:59;0.80;1.00
35613;DHT22;22054;51.646;7.078;2022-12-18T14:38:37;0.70;1.00
35613;DHT22;22054;51.646;7.078;2022-12-18T14:41:09;0.60;1.00
35613;DHT22;22054;51.646;7.078;2022-12-18T14:43:38;0.60;1.00
35613;DHT22;22054;51.646;7.078;2022-12-18T14:46:24;0.60;1.00
35613;DHT22;22054;51.646;7.078;2022-12-18T14:48:53;0.50;1.00
35613;DHT22;22054;51.646;7.078;2022-12-18T14:51:29;0.50;1.00
35613;DHT22;22054;51.646;7.078;2022-12-18T14:54:01;0.40;1.00
35613;DHT22;22054;51.646;7.078;2022-12-18T14:56:36;0.40;15.40
35613;DHT22;22054;51.646;7.078;2022-12-18T14:59:22;0.40;99.90
35613;DHT22;22054;51.646;7.078;2022-12-18T15:01:58;0.40;1.00
35613;DHT22;22054;51.646;7.078;2022-12-18T15:04:43;0.50;99.90
35613;DHT22;22054;51.646;7.078;2022-12-18T15:07:20;0.50;1.00
35613;DHT22;22054;51.646;7.078;2022-12-18T15:10:18;0.60;1.00
35613;DHT22;22054;51.646;7.078;2022-12-18T15:20:33;0.60;99.90
35613;DHT22;22054;51.646;7.078;2022-12-18T15:25:58;0.60;1.00
35613;DHT22;22054;51.646;7.078;2022-12-18T15:28:36;0.50;99.90
35613;DHT22;22054;51.646;7.078;2022-12-18T15:33:38;0.50;99.90
35613;DHT22;22054;51.646;7.078;2022-12-18T15:36:09;0.40;99.90
35613;DHT22;22054;51.646;7.078;2022-12-18T15:38:36;0.40;1.00
35613;DHT22;22054;51.646;7.078;2022-12-18T15:41:02;0.30;1.00
35613;DHT22;22054;51.646;7.078;2022-12-18T15:43:28;0.50;99.90
35613;DHT22;22054;51.646;7.078;2022-12-18T15:48:58;0.40;1.00
35613;DHT22;22054;51.646;7.078;2022-12-18T15:51:31;0.40;99.90
35613;DHT22;22054;51.646;7.078;2022-12-18T15:54:01;0.40;41.50
35613;DHT22;22054;51.646;7.078;2022-12-18T15:56:29;0.40;1.00
35613;DHT22;22054;51.646;7.078;2022-12-18T15:59:18;0.30;1.00
35613;DHT22;22054;51.646;7.078;2022-12-18T16:01:47;0.30;1.00
35613;DHT22;22054;51.646;7.078;2022-12-18T16:04:16;0.30;99.90
35613;DHT22;22054;51.646;7.078;2022-12-18T16:06:45;0.30;1.00
35613;DHT22;22054;51.646;7.078;2022-12-18T16:09:12;0.30;99.90
35613;DHT22;22054;51.646;7.078;2022-12-18T16:11:39;0.30;1.00
35613;DHT22;22054;51.646;7.078;2022-12-18T16:14:24;0.30;1.00
35613;DHT22;22054;51.646;7.078;2022-12-18T16:16:57;0.40;1.00
35613;DHT22;22054;51.646;7.078;2022-12-18T16:19:24;0.30;1.00
35613;DHT22;22054;51.646;7.078;2022-12-18T16:21:52;0.40;1.00
35613;DHT22;22054;51.646;7.078;2022-12-18T16:24:20;0.40;88.00
35613;DHT22;22054;51.646;7.078;2022-12-18T16:26:48;0.40;1.00
35613;DHT22;22054;51.646;7.078;2022-12-18T16:29:14;0.40;1.00
35613;DHT22;22054;51.646;7.078;2022-12-18T16:31:40;0.30;1.00
35613;DHT22;22054;51.646;7.078;2022-12-18T16:34:11;0.40;1.00
35613;DHT22;22054;51.646;7.078;2022-12-18T16:36:37;0.30;1.00
35613;DHT22;22054;51.646;7.078;2022-12-18T16:39:03;0.40;99.90
35613;DHT22;22054;51.646;7.078;2022-12-18T16:41:31;0.40;99.90
35613;DHT22;22054;51.646;7.078;2022-12-18T16:43:58;0.40;99.90
35613;DHT22;22054;51.646;7.078;2022-12-18T16:46:27;0.40;1.00
35613;DHT22;22054;51.646;7.078;2022-12-18T16:48:53;0.40;99.90
35613;DHT22;22054;51.646;7.078;2022-12-18T16:51:18;0.40;1.00
35613;DHT22;22054;51.646;7.078;2022-12-18T16:53:44;0.50;1.00
35613;DHT22;22054;51.646;7.078;2022-12-18T16:56:10;0.40;99.90
35613;DHT22;22054;51.646;7.078;2022-12-18T16:58:35;0.50;1.00
35613;DHT22;22054;51.646;7.078;2022-12-18T17:01:06;0.50;1.00
35613;DHT22;22054;51.646;7.078;2022-12-18T17:03:32;0.50;1.00
35613;DHT22;22054;51.646;7.078;2022-12-18T17:06:02;0.60;1.00
35613;DHT22;22054;51.646;7.078;2022-12-18T17:08:29;0.70;1.00
35613;DHT22;22054;51.646;7.078;2022-12-18T17:10:55;0.70;1.00
35613;DHT22;22054;51.646;7.078;2022-12-18T17:13:23;0.80;99.90
35613;DHT22;22054;51.646;7.078;2022-12-18T17:15:51;0.80;99.90
35613;DHT22;22054;51.646;7.078;2022-12-18T17:18:16;0.90;1.00
35613;DHT22;22054;51.646;7.078;2022-12-18T17:20:45;0.90;1.00
35613;DHT22;22054;51.646;7.078;2022-12-18T17:23:11;1.00;1.00
35613;DHT22;22054;51.646;7.078;2022-12-18T17:25:39;1.00;1.00
35613;DHT22;22054;51.646;7.078;2022-12-18T17:28:04;1.00;41.00
35613;DHT22;22054;51.646;7.078;2022-12-18T17:30:30;1.10;1.00
35613;DHT22;22054;51.646;7.078;2022-12-18T17:32:56;1.30;1.00
35613;DHT22;22054;51.646;7.078;2022-12-18T17:35:22;1.20;1.00
35613;DHT22;22054;51.646;7.078;2022-12-18T17:37:47;1.10;1.00
35613;DHT22;22054;51.646;7.078;2022-12-18T17:40:13;1.20;99.90
35613;DHT22;22054;51.646;7.078;2022-12-18T17:42:39;1.20;99.90
35613;DHT22;22054;51.646;7.078;2022-12-18T17:45:05;1.20;99.90
35613;DHT22;22054;51.646;7.078;2022-12-18T17:47:31;1.20;99.90
35613;DHT22;22054;51.646;7.078;2022-12-18T17:49:57;1.20;99.90